Time,TemperatureF,DewpointF,PressureIn,WindDirection,WindDirectionDegrees,WindSpeedMPH,WindSpeedGustMPH,Humidity,HourlyPrecipIn,Conditions,Clouds,dailyrainin,SoftwareType,DateUTC
2013-04-11 00:00:00,64.9,61.9,30.00,South,186,0.0,1.0,90,0.00,,,0.00,Wunderground v.1.15,2013-04-11 04:00:00,
2013-04-11 00:05:00,64.9,62.2,30.00,South,186,1.0,1.0,91,0.00,,,0.00,Wunderground v.1.15,2013-04-11 04:05:00,
2013-04-11 00:10:00,64.8,62.1,29.99,South,186,0.0,0.0,91,0.00,,,0.00,Wunderground v.1.15,2013-04-11 04:10:00,
2013-04-11 00:20:00,64.6,61.9,29.99,South,186,0.0,0.0,91,0.00,,,0.00,Wunderground v.1.15,2013-04-11 04:20:00,
2013-04-11 00:30:00,64.4,61.7,29.99,South,186,0.0,0.0,91,0.00,,,0.00,Wunderground v.1.15,2013-04-11 04:30:00,
2013-04-11 00:35:00,64.3,61.9,29.99,South,186,0.0,1.0,92,0.00,,,0.00,Wunderground v.1.15,2013-04-11 04:35:00,
2013-04-11 00:45:00,64.2,61.8,29.99,South,186,0.0,0.0,92,0.00,,,0.00,Wunderground v.1.15,2013-04-11 04:45:00,
2013-04-11 00:55:00,64.1,61.7,29.98,South,186,0.0,0.0,92,0.00,,,0.00,Wunderground v.1.15,2013-04-11 04:55:00,
2013-04-11 01:00:00,64.1,62.0,29.99,South,186,0.0,1.0,93,0.00,,,0.00,Wunderground v.1.15,2013-04-11 05:00:00,
2013-04-11 01:10:00,64.3,62.2,29.98,South,186,0.0,0.0,93,0.00,,,0.00,Wunderground v.1.15,2013-04-11 05:10:00,
2013-04-11 01:15:00,64.3,62.2,29.98,South,186,0.0,0.0,93,0.00,,,0.00,Wunderground v.1.15,2013-04-11 05:15:00,
2013-04-11 01:25:00,64.4,62.0,29.98,South,186,0.0,0.0,92,0.00,,,0.00,Wunderground v.1.15,2013-04-11 05:25:00,
2013-04-11 01:35:00,64.2,62.1,29.98,South,186,0.0,0.0,93,0.00,,,0.00,Wunderground v.1.15,2013-04-11 05:35:00,
2013-04-11 01:45:00,64.1,62.0,29.98,South,186,0.0,0.0,93,0.00,,,0.00,Wunderground v.1.15,2013-04-11 05:45:00,
2013-04-11 01:50:00,64.2,62.1,29.98,South,186,0.0,0.0,93,0.00,,,0.00,Wunderground v.1.15,2013-04-11 05:50:00,
2013-04-11 02:00:00,64.1,62.0,29.98,South,186,0.0,0.0,93,0.00,,,0.00,Wunderground v.1.15,2013-04-11 06:00:00,
2013-04-11 02:05:00,63.9,61.8,29.98,South,186,0.0,0.0,93,0.00,,,0.00,Wunderground v.1.15,2013-04-11 06:05:00,
2013-04-11 02:15:00,63.6,61.5,29.98,South,186,0.0,0.0,93,0.00,,,0.00,Wunderground v.1.15,2013-04-11 06:15:00,
2013-04-11 02:20:00,63.5,61.4,29.98,South,186,0.0,0.0,93,0.00,,,0.00,Wunderground v.1.15,2013-04-11 06:20:00,
2013-04-11 02:30:00,63.2,61.4,29.98,South,186,0.0,0.0,94,0.00,,,0.00,Wunderground v.1.15,2013-04-11 06:30:00,
2013-04-11 02:35:00,63.0,60.9,29.98,South,186,0.0,0.0,93,0.00,,,0.00,Wunderground v.1.15,2013-04-11 06:35:00,
2013-04-11 02:45:00,62.6,60.5,29.98,South,186,0.0,0.0,93,0.00,,,0.00,Wunderground v.1.15,2013-04-11 06:45:00,
2013-04-11 02:50:00,62.3,60.6,29.97,South,186,0.0,0.0,94,0.00,,,0.00,Wunderground v.1.15,2013-04-11 06:50:00,
2013-04-11 03:00:00,62.1,60.4,29.97,South,186,0.0,0.0,94,0.00,,,0.00,Wunderground v.1.15,2013-04-11 07:00:00,
2013-04-11 03:10:00,61.7,59.7,29.97,South,186,0.0,0.0,93,0.00,,,0.00,Wunderground v.1.15,2013-04-11 07:10:00,
2013-04-11 03:15:00,61.5,59.8,29.97,South,186,0.0,0.0,94,0.00,,,0.00,Wunderground v.1.15,2013-04-11 07:15:00,
2013-04-11 10:25:00,74.2,68.3,29.99,SSE,161,3.0,3.0,82,0.00,,,0.00,Wunderground v.1.15,2013-04-11 14:25:00,
2013-04-11 10:35:00,74.4,68.5,29.99,ESE,118,3.0,9.0,82,0.00,,,0.00,Wunderground v.1.15,2013-04-11 14:35:00,
2013-04-11 10:40:00,74.9,69.0,29.99,SE,140,3.0,9.0,82,0.00,,,0.00,Wunderground v.1.15,2013-04-11 14:40:00,
2013-04-11 10:50:00,74.8,68.6,29.99,SW,215,3.0,3.0,81,0.00,,,0.00,Wunderground v.1.15,2013-04-11 14:50:00,
2013-04-11 10:55:00,74.9,68.7,29.99,SW,214,2.0,4.0,81,0.00,,,0.00,Wunderground v.1.15,2013-04-11 14:55:00,
2013-04-11 11:05:00,75.5,69.3,29.98,ESE,121,2.0,3.0,81,0.00,,,0.00,Wunderground v.1.15,2013-04-11 15:05:00,
2013-04-11 11:15:00,76.7,68.9,29.98,SSW,198,3.0,3.0,77,0.00,,,0.00,Wunderground v.1.15,2013-04-11 15:15:00,
2013-04-11 11:20:00,76.6,68.5,29.98,South,175,4.0,4.0,76,0.00,,,0.00,Wunderground v.1.15,2013-04-11 15:20:00,
2013-04-11 11:30:00,76.3,68.9,29.97,ESE,117,4.0,4.0,78,0.00,,,0.00,Wunderground v.1.15,2013-04-11 15:30:00,
2013-04-11 11:40:00,75.8,69.2,29.97,South,180,3.0,4.0,80,0.00,,,0.00,Wunderground v.1.15,2013-04-11 15:40:00,
2013-04-11 11:50:00,77.2,69.8,29.97,WSW,239,4.0,5.0,78,0.00,,,0.00,Wunderground v.1.15,2013-04-11 15:50:00,
2013-04-11 12:00:00,77.5,70.1,29.97,South,178,4.0,4.0,78,0.00,,,0.00,Wunderground v.1.15,2013-04-11 16:00:00,
2013-04-11 12:10:00,76.5,69.5,29.96,SE,138,5.0,6.0,79,0.00,,,0.00,Wunderground v.1.15,2013-04-11 16:10:00,
2013-04-11 12:20:00,76.8,69.8,29.96,ENE,69,4.0,4.0,79,0.00,,,0.00,Wunderground v.1.15,2013-04-11 16:20:00,
2013-04-11 12:30:00,76.9,70.3,29.96,SSE,150,4.0,5.0,80,0.00,,,0.00,Wunderground v.1.15,2013-04-11 16:30:00,
2013-04-11 12:40:00,76.8,69.8,29.95,East,83,4.0,7.0,79,0.00,,,0.00,Wunderground v.1.15,2013-04-11 16:40:00,
2013-04-11 12:50:00,77.2,69.8,29.95,East,101,5.0,6.0,78,0.00,,,0.00,Wunderground v.1.15,2013-04-11 16:50:00,
2013-04-11 12:55:00,76.7,69.3,29.95,SSE,165,5.0,7.0,78,0.00,,,0.00,Wunderground v.1.15,2013-04-11 16:55:00,
2013-04-11 13:05:00,76.2,69.6,29.94,SSE,166,5.0,6.0,80,0.00,,,0.00,Wunderground v.1.15,2013-04-11 17:05:00,
2013-04-11 13:15:00,77.0,70.0,29.94,SE,133,5.0,8.0,79,0.00,,,0.00,Wunderground v.1.15,2013-04-11 17:15:00,
2013-04-11 13:25:00,78.1,69.9,29.93,SE,140,5.0,7.0,76,0.00,,,0.00,Wunderground v.1.15,2013-04-11 17:25:00,
2013-04-11 13:35:00,78.6,70.4,29.92,SSE,159,5.0,6.0,76,0.00,,,0.00,Wunderground v.1.15,2013-04-11 17:35:00,
2013-04-11 13:45:00,78.4,70.2,29.92,SE,130,6.0,6.0,76,0.00,,,0.00,Wunderground v.1.15,2013-04-11 17:45:00,
2013-04-11 13:50:00,78.6,70.0,29.92,South,176,5.0,6.0,75,0.00,,,0.00,Wunderground v.1.15,2013-04-11 17:50:00,
2013-04-11 14:00:00,77.8,69.6,29.92,SSE,153,5.0,5.0,76,0.00,,,0.00,Wunderground v.1.15,2013-04-11 18:00:00,
2013-04-11 14:10:00,79.0,70.0,29.91,SE,132,5.0,5.0,74,0.00,,,0.00,Wunderground v.1.15,2013-04-11 18:10:00,
2013-04-11 14:20:00,79.4,70.0,29.91,ESE,118,5.0,7.0,73,0.00,,,0.00,Wunderground v.1.15,2013-04-11 18:20:00,
2013-04-11 14:25:00,78.9,69.5,29.91,SE,129,6.0,7.0,73,0.00,,,0.00,Wunderground v.1.15,2013-04-11 18:25:00,
2013-04-11 14:35:00,78.1,69.5,29.90,South,169,6.0,6.0,75,0.00,,,0.00,Wunderground v.1.15,2013-04-11 18:35:00,
2013-04-11 14:45:00,78.3,69.7,29.90,SSE,153,5.0,8.0,75,0.00,,,0.00,Wunderground v.1.15,2013-04-11 18:45:00,
2013-04-11 14:55:00,77.4,69.2,29.90,ESE,119,6.0,6.0,76,0.00,,,0.00,Wunderground v.1.15,2013-04-11 18:55:00,
2013-04-11 15:00:00,77.4,69.2,29.90,ESE,108,6.0,10.0,76,0.00,,,0.00,Wunderground v.1.15,2013-04-11 19:00:00,
2013-04-11 15:10:00,77.8,69.6,29.89,SSE,162,5.0,7.0,76,0.00,,,0.00,Wunderground v.1.15,2013-04-11 19:10:00,
2013-04-11 15:20:00,78.1,69.9,29.89,SE,127,6.0,7.0,76,0.00,,,0.00,Wunderground v.1.15,2013-04-11 19:20:00,
2013-04-11 15:25:00,78.5,70.3,29.88,SW,218,5.0,8.0,76,0.00,,,0.00,Wunderground v.1.15,2013-04-11 19:25:00,
2013-04-11 15:35:00,77.9,69.7,29.88,SE,136,7.0,9.0,76,0.00,,,0.00,Wunderground v.1.15,2013-04-11 19:35:00,
2013-04-11 15:45:00,77.7,69.9,29.87,South,173,6.0,7.0,77,0.00,,,0.00,Wunderground v.1.15,2013-04-11 19:45:00,
2013-04-11 15:55:00,77.6,69.4,29.87,SSE,150,5.0,7.0,76,0.00,,,0.00,Wunderground v.1.15,2013-04-11 19:55:00,
2013-04-11 16:00:00,77.2,69.4,29.87,ESE,107,6.0,6.0,77,0.00,,,0.00,Wunderground v.1.15,2013-04-11 20:00:00,
2013-04-11 16:10:00,77.5,69.3,29.86,SE,144,5.0,7.0,76,0.00,,,0.00,Wunderground v.1.15,2013-04-11 20:10:00,
2013-04-11 16:15:00,76.5,69.1,29.86,SSE,166,6.0,7.0,78,0.00,,,0.00,Wunderground v.1.15,2013-04-11 20:15:00,
2013-04-11 16:25:00,76.1,68.7,29.85,SSE,168,5.0,7.0,78,0.00,,,0.00,Wunderground v.1.15,2013-04-11 20:25:00,
2013-04-11 16:35:00,76.1,69.1,29.85,South,184,6.0,6.0,79,0.00,,,0.00,Wunderground v.1.15,2013-04-11 20:35:00,
2013-04-11 16:45:00,76.1,69.1,29.85,SSE,157,6.0,7.0,79,0.00,,,0.00,Wunderground v.1.15,2013-04-11 20:45:00,
2013-04-11 16:55:00,75.4,68.8,29.85,SE,139,6.0,7.0,80,0.00,,,0.00,Wunderground v.1.15,2013-04-11 20:55:00,
2013-04-11 17:00:00,75.3,68.7,29.85,SE,142,6.0,6.0,80,0.00,,,0.00,Wunderground v.1.15,2013-04-11 21:00:00,
2013-04-11 17:10:00,75.0,68.8,29.85,South,182,5.0,5.0,81,0.00,,,0.00,Wunderground v.1.15,2013-04-11 21:10:00,
2013-04-11 17:15:00,74.7,68.8,29.85,SE,128,5.0,9.0,82,0.00,,,0.00,Wunderground v.1.15,2013-04-11 21:15:00,
2013-04-11 17:25:00,73.9,68.4,29.84,SSE,160,6.0,8.0,83,0.00,,,0.00,Wunderground v.1.15,2013-04-11 21:25:00,
2013-04-11 17:30:00,73.7,68.2,29.84,SSE,148,6.0,6.0,83,0.00,,,0.00,Wunderground v.1.15,2013-04-11 21:30:00,
2013-04-11 17:40:00,73.0,67.9,29.84,East,88,6.0,6.0,84,0.00,,,0.00,Wunderground v.1.15,2013-04-11 21:40:00,
2013-04-11 17:50:00,73.0,68.2,29.85,SSW,194,5.0,5.0,85,0.00,,,0.00,Wunderground v.1.15,2013-04-11 21:50:00,
2013-04-11 17:55:00,72.9,68.1,29.85,SSE,151,6.0,6.0,85,0.00,,,0.00,Wunderground v.1.15,2013-04-11 21:55:00,
2013-04-11 18:05:00,72.6,67.8,29.85,SSE,164,6.0,7.0,85,0.00,,,0.00,Wunderground v.1.15,2013-04-11 22:05:00,
2013-04-11 18:10:00,72.4,67.3,29.85,South,173,6.0,6.0,84,0.00,,,0.00,Wunderground v.1.15,2013-04-11 22:10:00,
2013-04-11 18:20:00,71.9,66.8,29.85,South,186,5.0,5.0,84,0.00,,,0.00,Wunderground v.1.15,2013-04-11 22:20:00,
2013-04-11 18:25:00,71.6,66.8,29.85,SSE,165,5.0,5.0,85,0.00,,,0.00,Wunderground v.1.15,2013-04-11 22:25:00,
2013-04-11 18:35:00,71.2,66.1,29.85,South,190,4.0,8.0,84,0.00,,,0.00,Wunderground v.1.15,2013-04-11 22:35:00,
2013-04-11 18:40:00,71.0,66.3,29.85,SSW,213,4.0,4.0,85,0.00,,,0.00,Wunderground v.1.15,2013-04-11 22:40:00,
2013-04-11 18:50:00,70.9,66.5,29.85,SSE,151,4.0,4.0,86,0.00,,,0.00,Wunderground v.1.15,2013-04-11 22:50:00,
2013-04-11 18:55:00,70.8,66.4,29.85,SSE,158,4.0,4.0,86,0.00,,,0.00,Wunderground v.1.15,2013-04-11 22:55:00,
2013-04-11 19:00:00,70.8,66.7,29.85,SSE,157,4.0,5.0,87,0.00,,,0.00,Wunderground v.1.15,2013-04-11 23:00:00,
2013-04-11 19:10:00,70.7,66.6,29.85,SSE,165,3.0,3.0,87,0.00,,,0.00,Wunderground v.1.15,2013-04-11 23:10:00,
2013-04-11 19:15:00,70.6,66.5,29.85,SSE,148,3.0,3.0,87,0.00,,,0.00,Wunderground v.1.15,2013-04-11 23:15:00,
2013-04-11 19:25:00,70.4,66.7,29.85,SSW,200,3.0,8.0,88,0.00,,,0.00,Wunderground v.1.15,2013-04-11 23:25:00,
2013-04-11 19:30:00,70.2,66.8,29.85,SSE,163,3.0,4.0,89,0.00,,,0.00,Wunderground v.1.15,2013-04-11 23:30:00,
2013-04-11 19:40:00,69.9,66.5,29.85,SE,140,4.0,4.0,89,0.00,,,0.00,Wunderground v.1.15,2013-04-11 23:40:00,
2013-04-11 19:45:00,69.7,66.6,29.85,SSW,208,3.0,4.0,90,0.00,,,0.00,Wunderground v.1.15,2013-04-11 23:45:00,
2013-04-11 19:55:00,69.5,66.4,29.84,SE,144,3.0,3.0,90,0.00,,,0.00,Wunderground v.1.15,2013-04-11 23:55:00,
2013-04-11 20:05:00,69.5,66.4,29.84,ESE,123,3.0,7.0,90,0.00,,,0.00,Wunderground v.1.15,2013-04-12 00:05:00,
2013-04-11 20:15:00,69.6,66.9,29.84,SSE,159,3.0,4.0,91,0.00,,,0.00,Wunderground v.1.15,2013-04-12 00:15:00,
2013-04-11 20:20:00,69.5,66.8,29.84,SE,146,3.0,3.0,91,0.00,,,0.00,Wunderground v.1.15,2013-04-12 00:20:00,
2013-04-11 20:30:00,69.2,66.5,29.84,ESE,116,3.0,3.0,91,0.00,,,0.00,Wunderground v.1.15,2013-04-12 00:30:00,
2013-04-11 20:35:00,69.1,66.4,29.85,SE,128,3.0,3.0,91,0.00,,,0.00,Wunderground v.1.15,2013-04-12 00:35:00,
2013-04-11 20:45:00,68.9,66.5,29.84,South,178,4.0,5.0,92,0.00,,,0.00,Wunderground v.1.15,2013-04-12 00:45:00,
2013-04-11 20:50:00,68.8,66.4,29.84,ESE,121,4.0,4.0,92,0.00,,,0.00,Wunderground v.1.15,2013-04-12 00:50:00,
2013-04-11 21:00:00,68.8,66.4,29.84,SE,128,3.0,5.0,92,0.00,,,0.00,Wunderground v.1.15,2013-04-12 01:00:00,
2013-04-11 21:10:00,68.8,66.7,29.84,SE,146,3.0,3.0,93,0.00,,,0.00,Wunderground v.1.15,2013-04-12 01:10:00,
2013-04-11 21:15:00,68.9,66.8,29.84,SSW,211,3.0,4.0,93,0.00,,,0.00,Wunderground v.1.15,2013-04-12 01:15:00,
2013-04-11 21:25:00,69.2,67.1,29.84,East,97,3.0,3.0,93,0.00,,,0.00,Wunderground v.1.15,2013-04-12 01:25:00,
2013-04-11 21:30:00,69.3,67.2,29.84,ESE,107,3.0,7.0,93,0.00,,,0.00,Wunderground v.1.15,2013-04-12 01:30:00,
2013-04-11 21:40:00,69.5,67.1,29.84,SE,124,5.0,5.0,92,0.00,,,0.00,Wunderground v.1.15,2013-04-12 01:40:00,
2013-04-11 21:45:00,69.6,67.2,29.84,South,176,4.0,5.0,92,0.00,,,0.00,Wunderground v.1.15,2013-04-12 01:45:00,
2013-04-11 21:55:00,69.9,67.5,29.84,SSW,200,3.0,4.0,92,0.00,,,0.00,Wunderground v.1.15,2013-04-12 01:55:00,
2013-04-11 22:05:00,70.3,67.9,29.83,SE,128,4.0,5.0,92,0.00,,,0.00,Wunderground v.1.15,2013-04-12 02:05:00,
2013-04-11 22:10:00,70.4,67.6,29.83,SE,139,5.0,5.0,91,0.00,,,0.00,Wunderground v.1.15,2013-04-12 02:10:00,
2013-04-11 22:20:00,70.4,67.6,29.83,SE,130,5.0,5.0,91,0.00,,,0.00,Wunderground v.1.15,2013-04-12 02:20:00,
2013-04-11 22:30:00,70.5,67.7,29.83,SSE,161,5.0,5.0,91,0.00,,,0.00,Wunderground v.1.15,2013-04-12 02:30:00,
2013-04-11 22:35:00,70.4,67.6,29.83,ESE,115,4.0,8.0,91,0.00,,,0.00,Wunderground v.1.15,2013-04-12 02:35:00,
2013-04-11 22:45:00,70.3,67.5,29.83,South,185,4.0,4.0,91,0.00,,,0.00,Wunderground v.1.15,2013-04-12 02:45:00,
2013-04-11 22:50:00,70.2,67.4,29.83,SE,129,3.0,4.0,91,0.00,,,0.00,Wunderground v.1.15,2013-04-12 02:50:00,
2013-04-11 23:00:00,70.1,67.3,29.83,SE,138,4.0,7.0,91,0.00,,,0.00,Wunderground v.1.15,2013-04-12 03:00:00,
2013-04-11 23:10:00,70.0,67.3,29.83,SSE,159,4.0,4.0,91,0.00,,,0.00,Wunderground v.1.15,2013-04-12 03:10:00,
2013-04-11 23:15:00,69.9,67.2,29.83,SSE,165,4.0,6.0,91,0.00,,,0.00,Wunderground v.1.15,2013-04-12 03:15:00,
2013-04-11 23:25:00,69.9,67.2,29.83,SSE,165,5.0,5.0,91,0.00,,,0.00,Wunderground v.1.15,2013-04-12 03:25:00,
2013-04-11 23:30:00,69.8,67.1,29.83,East,88,4.0,4.0,91,0.00,,,0.00,Wunderground v.1.15,2013-04-12 03:30:00,
2013-04-11 23:40:00,69.5,66.8,29.83,SSE,159,3.0,3.0,91,0.00,,,0.00,Wunderground v.1.15,2013-04-12 03:40:00,
2013-04-11 23:45:00,69.3,66.9,29.83,SSE,163,3.0,3.0,92,0.00,,,0.00,Wunderground v.1.15,2013-04-12 03:45:00,
2013-04-11 23:55:00,69.0,66.6,29.83,South,175,3.0,4.0,92,0.00,,,0.00,Wunderground v.1.15,2013-04-12 03:55:00,